SILO ALERT LOG
| Silo ID | Alert Type | Alert Message | Silo Type | Points | Depth (mm) | Strength | Temperature (°C) | Humidity (%) | Height (mm) | Volume (㎥) | Weight (t) | Flag | Time |
|---|---|---|---|---|---|---|---|---|---|---|---|---|---|
| WJWJR05 | Humidity | 습도센서 측정값이 80% 초과 | 평 | 62 | 7680 | 2654 | 26.5 | 83.9 | 40 | 4.524 | 2.86 | 0 | 2026-07-23 09:25:43.000 |
| WJWJR01 | Humidity | 습도센서 측정값이 80% 초과 | 평 | 75 | 7650 | 1055 | 24.8 | 96.4 | -10 | -1.131 | 0 | 0 | 2026-07-23 08:26:02.000 |
| WJWJR05 | Humidity | 습도센서 측정값이 80% 초과 | 평 | 56 | 7670 | 2610 | 26 | 82.5 | 49 | 5.655 | 3.575 | 0 | 2026-07-23 08:25:45.000 |
| WJWJR01 | Humidity | 습도센서 측정값이 80% 초과 | 평 | 83 | 7710 | 1043 | 24.6 | 96.4 | -70 | -7.917 | 0 | 0 | 2026-07-23 07:25:57.000 |
| WJWJR05 | Humidity | 습도센서 측정값이 80% 초과 | 평 | 58 | 7690 | 2611 | 26 | 82.4 | 29 | 3.393 | 2.145 | 0 | 2026-07-23 07:25:46.000 |
| WJWJR01 | Humidity | 습도센서 측정값이 80% 초과 | 평 | 75 | 7720 | 1042 | 24.6 | 96.4 | -80 | -9.048 | 0 | 0 | 2026-07-23 06:26:02.000 |
| WJWJR05 | Humidity | 습도센서 측정값이 80% 초과 | 평 | 58 | 7670 | 2648 | 26 | 82.6 | 49 | 5.655 | 3.575 | 0 | 2026-07-23 06:25:40.000 |
| WJWJR01 | Humidity | 습도센서 측정값이 80% 초과 | 평 | 76 | 7700 | 1040 | 24.6 | 96.1 | -60 | -6.786 | 0 | 0 | 2026-07-23 05:26:01.000 |
| WJWJR05 | Humidity | 습도센서 측정값이 80% 초과 | 평 | 61 | 7670 | 2643 | 26 | 82.7 | 49 | 5.655 | 3.575 | 0 | 2026-07-23 05:25:47.000 |
| WJWJR01 | Humidity | 습도센서 측정값이 80% 초과 | 평 | 77 | 7700 | 1048 | 24.7 | 96.1 | -60 | -6.786 | 0 | 0 | 2026-07-23 04:26:09.000 |
| WJWJR05 | Humidity | 습도센서 측정값이 80% 초과 | 평 | 58 | 7670 | 2634 | 26.1 | 82.8 | 49 | 5.655 | 3.575 | 0 | 2026-07-23 04:25:46.000 |
| WJWJR01 | Humidity | 습도센서 측정값이 80% 초과 | 평 | 77 | 7700 | 1068 | 24.7 | 95.8 | -60 | -6.786 | 0 | 0 | 2026-07-23 03:25:54.000 |
| WJWJR05 | Humidity | 습도센서 측정값이 80% 초과 | 평 | 58 | 7650 | 2647 | 26.2 | 82.8 | 69 | 7.917 | 5.005 | 0 | 2026-07-23 03:25:51.000 |
| WJWJR01 | Humidity | 습도센서 측정값이 80% 초과 | 평 | 76 | 7680 | 1052 | 24.9 | 95.5 | -40 | -4.524 | 0 | 0 | 2026-07-23 02:25:59.000 |
| WJWJR05 | Humidity | 습도센서 측정값이 80% 초과 | 평 | 61 | 7690 | 2630 | 26.3 | 82.7 | 29 | 3.393 | 2.145 | 0 | 2026-07-23 02:25:45.000 |
| WJWJR01 | Humidity | 습도센서 측정값이 80% 초과 | 평 | 76 | 7650 | 1067 | 25 | 95.4 | -10 | -1.131 | 0 | 0 | 2026-07-23 01:26:05.000 |
| WJWJR05 | Humidity | 습도센서 측정값이 80% 초과 | 평 | 58 | 7690 | 2628 | 26.4 | 82.7 | 29 | 3.393 | 2.145 | 0 | 2026-07-23 01:25:48.000 |
| WJWJR01 | Humidity | 습도센서 측정값이 80% 초과 | 평 | 77 | 7700 | 1044 | 25.2 | 95.1 | -60 | -6.786 | 0 | 0 | 2026-07-23 00:26:00.000 |
| WJWJR05 | Humidity | 습도센서 측정값이 80% 초과 | 평 | 58 | 7690 | 2583 | 26.6 | 82.5 | 29 | 3.393 | 2.145 | 0 | 2026-07-23 00:25:46.000 |
| WJWJR01 | Humidity | 습도센서 측정값이 80% 초과 | 평 | 75 | 7700 | 1067 | 25.4 | 94.5 | -60 | -6.786 | 0 | 0 | 2026-07-22 23:25:59.000 |
[첫 페이지] [20] [21] [22] [23] 24 [25] [26] [27] [28] [마지막 페이지]